This is the latest recevied weather packets stored in our database for station/object DK6OC-10. If no packets are shown the sender has not sent any weather packets the latest 10 day(s).
| Time | Temp. | Humidity | Pressure | Rain* | Wind** | Luminosity | Snow |
|---|---|---|---|---|---|---|---|
| 1777744863 | 26.11° C | 38% | 1009.9 hPa | - | - | - | - |
| 1777743063 | 26.11° C | 39% | 1009.9 hPa | - | - | - | - |
| 1777741263 | 26.67° C | 37% | 1009.9 hPa | - | - | - | - |
| 1777739463 | 27.22° C | 36% | 1010.3 hPa | - | - | - | - |
| 1777737663 | 26.67° C | 37% | 1010.6 hPa | - | - | - | - |
| 1777735863 | 26.67° C | 39% | 1011.2 hPa | - | - | - | - |
| 1777734063 | 27.78° C | 37% | 1011.9 hPa | - | - | - | - |
| 1777732263 | 27.78° C | 40% | 1011.9 hPa | - | - | - | - |
| 1777730463 | 28.33° C | 31% | 1012.5 hPa | - | - | - | - |
| 1777728663 | 28.33° C | 31% | 1012.8 hPa | - | - | - | - |
| 1777726862 | 29.44° C | 25% | 1012.8 hPa | - | - | - | - |
| 1777725062 | 30° C | 24% | 1012.6 hPa | - | - | - | - |
| 1777723257 | 30° C | 24% | 1013.1 hPa | - | - | - | - |
| 1777721456 | 28.89° C | 25% | 1013.6 hPa | - | - | - | - |
| 1777719656 | 27.78° C | 26% | 1014 hPa | - | - | - | - |
| 1777717856 | 27.22° C | 26% | 1014.3 hPa | - | - | - | - |
| 1777716056 | 25.56° C | 26% | 1014.5 hPa | - | - | - | - |
| 1777714256 | 25° C | 27% | 1014.9 hPa | - | - | - | - |
| 1777712456 | 24.44° C | 28% | 1015.2 hPa | - | - | - | - |
| 1777710656 | 23.33° C | 28% | 1015.1 hPa | - | - | - | - |
| 1777708856 | 22.22° C | 29% | 1015 hPa | - | - | - | - |
| 1777707056 | 21.67° C | 29% | 1015.4 hPa | - | - | - | - |
| 1777705256 | 21.11° C | 29% | 1015.5 hPa | - | - | - | - |
| 1777703456 | 20.56° C | 28% | 1015.4 hPa | - | - | - | - |
| 1777701655 | 20.56° C | 28% | 1015.4 hPa | - | - | - | - |
* Rain since midnight (hover to see other rain measurements)
** Current wind speed in m/s (hover to see current wind gust speed)